sensor_id;sensor_type;location;lat;lon;timestamp;P1;durP1;ratioP1;P2;durP2;ratioP2
5722;SDS011;2886;49.722;8.612;2023-08-01T00:00:05;5.87;;;2.97;;
5722;SDS011;2886;49.722;8.612;2023-08-01T00:02:33;8.90;;;3.70;;
5722;SDS011;2886;49.722;8.612;2023-08-01T00:04:59;8.77;;;3.27;;
5722;SDS011;2886;49.722;8.612;2023-08-01T00:07:28;11.00;;;3.80;;
5722;SDS011;2886;49.722;8.612;2023-08-01T00:09:54;6.47;;;3.73;;
5722;SDS011;2886;49.722;8.612;2023-08-01T00:12:19;9.30;;;4.13;;
5722;SDS011;2886;49.722;8.612;2023-08-01T00:14:45;7.97;;;4.17;;
5722;SDS011;2886;49.722;8.612;2023-08-01T00:17:10;7.07;;;3.13;;
5722;SDS011;2886;49.722;8.612;2023-08-01T00:19:36;6.33;;;3.60;;
5722;SDS011;2886;49.722;8.612;2023-08-01T00:22:02;11.67;;;3.90;;
5722;SDS011;2886;49.722;8.612;2023-08-01T00:24:27;7.87;;;3.53;;
5722;SDS011;2886;49.722;8.612;2023-08-01T00:26:53;6.50;;;3.50;;
5722;SDS011;2886;49.722;8.612;2023-08-01T00:29:22;8.10;;;3.53;;
5722;SDS011;2886;49.722;8.612;2023-08-01T00:31:47;6.33;;;3.57;;
5722;SDS011;2886;49.722;8.612;2023-08-01T00:34:13;9.27;;;3.70;;
5722;SDS011;2886;49.722;8.612;2023-08-01T00:36:39;12.13;;;3.57;;
5722;SDS011;2886;49.722;8.612;2023-08-01T00:39:04;8.23;;;4.13;;
5722;SDS011;2886;49.722;8.612;2023-08-01T00:41:30;5.97;;;3.40;;
5722;SDS011;2886;49.722;8.612;2023-08-01T00:43:56;9.10;;;3.50;;
5722;SDS011;2886;49.722;8.612;2023-08-01T00:46:21;12.33;;;4.20;;
5722;SDS011;2886;49.722;8.612;2023-08-01T00:48:47;6.90;;;3.53;;
5722;SDS011;2886;49.722;8.612;2023-08-01T00:51:13;7.93;;;4.03;;
5722;SDS011;2886;49.722;8.612;2023-08-01T00:53:39;5.43;;;3.40;;
5722;SDS011;2886;49.722;8.612;2023-08-01T00:56:05;10.00;;;3.90;;
5722;SDS011;2886;49.722;8.612;2023-08-01T00:58:30;7.47;;;3.30;;
5722;SDS011;2886;49.722;8.612;2023-08-01T01:00:56;10.57;;;4.30;;
5722;SDS011;2886;49.722;8.612;2023-08-01T01:03:22;10.30;;;3.80;;
5722;SDS011;2886;49.722;8.612;2023-08-01T01:08:29;7.07;;;3.60;;
5722;SDS011;2886;49.722;8.612;2023-08-01T01:10:56;7.17;;;3.93;;
5722;SDS011;2886;49.722;8.612;2023-08-01T01:13:22;7.60;;;4.23;;
5722;SDS011;2886;49.722;8.612;2023-08-01T01:15:47;8.57;;;4.20;;
5722;SDS011;2886;49.722;8.612;2023-08-01T01:18:13;8.33;;;5.23;;
5722;SDS011;2886;49.722;8.612;2023-08-01T01:20:38;8.50;;;4.20;;
5722;SDS011;2886;49.722;8.612;2023-08-01T01:23:04;6.03;;;3.83;;
5722;SDS011;2886;49.722;8.612;2023-08-01T01:25:31;8.07;;;3.80;;
5722;SDS011;2886;49.722;8.612;2023-08-01T01:27:57;13.53;;;4.57;;
5722;SDS011;2886;49.722;8.612;2023-08-01T01:30:24;6.53;;;4.23;;
5722;SDS011;2886;49.722;8.612;2023-08-01T01:32:52;8.87;;;4.13;;
5722;SDS011;2886;49.722;8.612;2023-08-01T01:35:18;9.90;;;3.80;;
5722;SDS011;2886;49.722;8.612;2023-08-01T01:37:43;17.70;;;3.93;;
5722;SDS011;2886;49.722;8.612;2023-08-01T01:40:09;6.00;;;4.20;;
5722;SDS011;2886;49.722;8.612;2023-08-01T01:42:35;9.93;;;4.63;;
5722;SDS011;2886;49.722;8.612;2023-08-01T01:45:01;9.20;;;4.03;;
5722;SDS011;2886;49.722;8.612;2023-08-01T01:47:26;8.50;;;3.87;;
5722;SDS011;2886;49.722;8.612;2023-08-01T01:49:52;9.63;;;4.57;;
5722;SDS011;2886;49.722;8.612;2023-08-01T01:52:17;7.80;;;3.70;;
5722;SDS011;2886;49.722;8.612;2023-08-01T01:54:43;10.57;;;4.20;;
5722;SDS011;2886;49.722;8.612;2023-08-01T01:57:09;9.97;;;4.80;;
5722;SDS011;2886;49.722;8.612;2023-08-01T01:59:34;15.20;;;4.57;;
5722;SDS011;2886;49.722;8.612;2023-08-01T02:02:00;8.90;;;3.90;;
5722;SDS011;2886;49.722;8.612;2023-08-01T02:04:28;6.80;;;4.07;;
5722;SDS011;2886;49.722;8.612;2023-08-01T02:06:54;8.30;;;4.23;;
5722;SDS011;2886;49.722;8.612;2023-08-01T02:09:20;10.27;;;4.60;;
5722;SDS011;2886;49.722;8.612;2023-08-01T02:11:46;6.47;;;3.50;;
5722;SDS011;2886;49.722;8.612;2023-08-01T02:14:11;6.80;;;4.20;;
5722;SDS011;2886;49.722;8.612;2023-08-01T02:16:38;8.97;;;4.73;;
5722;SDS011;2886;49.722;8.612;2023-08-01T02:19:03;8.03;;;4.63;;
5722;SDS011;2886;49.722;8.612;2023-08-01T02:21:29;6.53;;;4.40;;
5722;SDS011;2886;49.722;8.612;2023-08-01T02:23:54;10.57;;;4.63;;
5722;SDS011;2886;49.722;8.612;2023-08-01T02:26:20;6.50;;;3.77;;
5722;SDS011;2886;49.722;8.612;2023-08-01T02:28:47;9.57;;;5.00;;
5722;SDS011;2886;49.722;8.612;2023-08-01T02:31:13;15.07;;;4.33;;
5722;SDS011;2886;49.722;8.612;2023-08-01T02:33:38;9.77;;;5.10;;
5722;SDS011;2886;49.722;8.612;2023-08-01T02:36:04;12.17;;;4.50;;
5722;SDS011;2886;49.722;8.612;2023-08-01T02:38:29;6.00;;;4.37;;
5722;SDS011;2886;49.722;8.612;2023-08-01T02:40:56;6.70;;;4.07;;
5722;SDS011;2886;49.722;8.612;2023-08-01T02:43:22;13.23;;;4.13;;
5722;SDS011;2886;49.722;8.612;2023-08-01T02:45:47;7.27;;;4.33;;
5722;SDS011;2886;49.722;8.612;2023-08-01T02:48:13;6.30;;;4.00;;
5722;SDS011;2886;49.722;8.612;2023-08-01T02:50:38;11.13;;;4.50;;
5722;SDS011;2886;49.722;8.612;2023-08-01T02:53:05;11.90;;;4.47;;
5722;SDS011;2886;49.722;8.612;2023-08-01T02:55:30;14.47;;;5.00;;
5722;SDS011;2886;49.722;8.612;2023-08-01T02:57:56;6.90;;;3.83;;
5722;SDS011;2886;49.722;8.612;2023-08-01T03:00:21;9.10;;;4.70;;
5722;SDS011;2886;49.722;8.612;2023-08-01T03:02:47;13.33;;;4.73;;
5722;SDS011;2886;49.722;8.612;2023-08-01T03:05:13;16.73;;;4.30;;
5722;SDS011;2886;49.722;8.612;2023-08-01T03:07:38;7.07;;;4.67;;
5722;SDS011;2886;49.722;8.612;2023-08-01T03:10:04;7.70;;;4.17;;
5722;SDS011;2886;49.722;8.612;2023-08-01T03:12:31;6.53;;;3.97;;
5722;SDS011;2886;49.722;8.612;2023-08-01T03:14:58;8.70;;;4.40;;
5722;SDS011;2886;49.722;8.612;2023-08-01T03:17:23;7.80;;;4.10;;
5722;SDS011;2886;49.722;8.612;2023-08-01T03:19:49;6.13;;;4.07;;
5722;SDS011;2886;49.722;8.612;2023-08-01T03:22:15;6.63;;;4.20;;
5722;SDS011;2886;49.722;8.612;2023-08-01T03:24:42;11.40;;;5.00;;
5722;SDS011;2886;49.722;8.612;2023-08-01T03:27:08;7.73;;;4.70;;
5722;SDS011;2886;49.722;8.612;2023-08-01T03:29:34;8.33;;;4.63;;
5722;SDS011;2886;49.722;8.612;2023-08-01T03:32:00;9.80;;;4.70;;
5722;SDS011;2886;49.722;8.612;2023-08-01T03:34:26;7.50;;;4.60;;
5722;SDS011;2886;49.722;8.612;2023-08-01T03:36:51;17.37;;;4.90;;
5722;SDS011;2886;49.722;8.612;2023-08-01T03:39:17;8.27;;;4.50;;
5722;SDS011;2886;49.722;8.612;2023-08-01T03:41:43;7.73;;;3.70;;
5722;SDS011;2886;49.722;8.612;2023-08-01T03:44:09;7.07;;;4.60;;
5722;SDS011;2886;49.722;8.612;2023-08-01T03:46:34;5.47;;;3.90;;
5722;SDS011;2886;49.722;8.612;2023-08-01T03:49:00;10.43;;;4.40;;
5722;SDS011;2886;49.722;8.612;2023-08-01T03:51:25;5.70;;;3.83;;
5722;SDS011;2886;49.722;8.612;2023-08-01T03:53:51;10.03;;;4.00;;
5722;SDS011;2886;49.722;8.612;2023-08-01T03:56:17;6.60;;;3.77;;
5722;SDS011;2886;49.722;8.612;2023-08-01T03:58:42;7.20;;;4.03;;
5722;SDS011;2886;49.722;8.612;2023-08-01T04:01:08;10.13;;;4.70;;
5722;SDS011;2886;49.722;8.612;2023-08-01T04:03:33;15.40;;;4.60;;
5722;SDS011;2886;49.722;8.612;2023-08-01T04:05:59;7.67;;;4.33;;
5722;SDS011;2886;49.722;8.612;2023-08-01T04:08:25;7.83;;;5.13;;
5722;SDS011;2886;49.722;8.612;2023-08-01T04:10:51;7.60;;;4.27;;
5722;SDS011;2886;49.722;8.612;2023-08-01T04:13:17;7.20;;;4.23;;
5722;SDS011;2886;49.722;8.612;2023-08-01T04:15:42;7.17;;;4.03;;
5722;SDS011;2886;49.722;8.612;2023-08-01T04:18:08;7.47;;;4.13;;
5722;SDS011;2886;49.722;8.612;2023-08-01T04:20:33;8.43;;;4.53;;
5722;SDS011;2886;49.722;8.612;2023-08-01T04:22:59;9.47;;;4.20;;
5722;SDS011;2886;49.722;8.612;2023-08-01T04:25:26;9.00;;;4.63;;
5722;SDS011;2886;49.722;8.612;2023-08-01T04:27:52;13.57;;;4.37;;
5722;SDS011;2886;49.722;8.612;2023-08-01T04:30:18;7.83;;;4.83;;
5722;SDS011;2886;49.722;8.612;2023-08-01T04:32:44;7.10;;;4.13;;
5722;SDS011;2886;49.722;8.612;2023-08-01T04:35:09;12.50;;;4.60;;
5722;SDS011;2886;49.722;8.612;2023-08-01T04:37:35;8.10;;;5.00;;
5722;SDS011;2886;49.722;8.612;2023-08-01T04:40:00;8.20;;;4.50;;
5722;SDS011;2886;49.722;8.612;2023-08-01T04:42:26;13.63;;;5.67;;
5722;SDS011;2886;49.722;8.612;2023-08-01T04:44:52;7.83;;;4.60;;
5722;SDS011;2886;49.722;8.612;2023-08-01T04:47:18;13.10;;;4.90;;
5722;SDS011;2886;49.722;8.612;2023-08-01T04:49:44;15.67;;;4.83;;
5722;SDS011;2886;49.722;8.612;2023-08-01T04:52:10;10.70;;;4.40;;
5722;SDS011;2886;49.722;8.612;2023-08-01T04:54:35;8.60;;;4.00;;
5722;SDS011;2886;49.722;8.612;2023-08-01T04:57:01;10.97;;;4.70;;
5722;SDS011;2886;49.722;8.612;2023-08-01T04:59:26;13.63;;;5.20;;
5722;SDS011;2886;49.722;8.612;2023-08-01T05:01:52;12.57;;;4.40;;
5722;SDS011;2886;49.722;8.612;2023-08-01T05:04:18;8.03;;;4.47;;
5722;SDS011;2886;49.722;8.612;2023-08-01T05:06:43;12.37;;;4.50;;
5722;SDS011;2886;49.722;8.612;2023-08-01T05:09:09;19.97;;;4.97;;
5722;SDS011;2886;49.722;8.612;2023-08-01T05:11:34;17.80;;;5.47;;
5722;SDS011;2886;49.722;8.612;2023-08-01T05:14:00;8.53;;;4.40;;
5722;SDS011;2886;49.722;8.612;2023-08-01T05:16:25;7.83;;;4.57;;
5722;SDS011;2886;49.722;8.612;2023-08-01T05:18:51;6.57;;;3.93;;
5722;SDS011;2886;49.722;8.612;2023-08-01T05:21:17;12.43;;;4.90;;
5722;SDS011;2886;49.722;8.612;2023-08-01T05:23:43;11.37;;;5.30;;
5722;SDS011;2886;49.722;8.612;2023-08-01T05:26:09;11.27;;;5.10;;
5722;SDS011;2886;49.722;8.612;2023-08-01T05:28:35;11.33;;;5.87;;
5722;SDS011;2886;49.722;8.612;2023-08-01T05:31:00;10.80;;;6.17;;
5722;SDS011;2886;49.722;8.612;2023-08-01T05:33:26;12.73;;;5.20;;
5722;SDS011;2886;49.722;8.612;2023-08-01T05:35:51;10.50;;;5.30;;
5722;SDS011;2886;49.722;8.612;2023-08-01T05:38:17;11.60;;;6.13;;
5722;SDS011;2886;49.722;8.612;2023-08-01T05:40:43;8.40;;;5.20;;
5722;SDS011;2886;49.722;8.612;2023-08-01T05:43:09;14.30;;;5.90;;
5722;SDS011;2886;49.722;8.612;2023-08-01T05:45:35;13.97;;;5.40;;
5722;SDS011;2886;49.722;8.612;2023-08-01T05:48:01;13.17;;;5.03;;
5722;SDS011;2886;49.722;8.612;2023-08-01T05:50:27;11.13;;;4.87;;
5722;SDS011;2886;49.722;8.612;2023-08-01T05:52:53;11.47;;;5.70;;
5722;SDS011;2886;49.722;8.612;2023-08-01T05:55:18;9.57;;;5.13;;
5722;SDS011;2886;49.722;8.612;2023-08-01T05:57:44;11.57;;;4.90;;
5722;SDS011;2886;49.722;8.612;2023-08-01T06:00:10;10.10;;;4.80;;
5722;SDS011;2886;49.722;8.612;2023-08-01T06:02:37;12.97;;;5.43;;
5722;SDS011;2886;49.722;8.612;2023-08-01T06:05:03;7.07;;;4.50;;
5722;SDS011;2886;49.722;8.612;2023-08-01T06:07:29;7.77;;;4.50;;
5722;SDS011;2886;49.722;8.612;2023-08-01T06:09:54;8.43;;;4.70;;
5722;SDS011;2886;49.722;8.612;2023-08-01T06:12:20;8.23;;;4.40;;
5722;SDS011;2886;49.722;8.612;2023-08-01T06:14:46;10.93;;;3.90;;
5722;SDS011;2886;49.722;8.612;2023-08-01T06:17:13;9.13;;;4.77;;
5722;SDS011;2886;49.722;8.612;2023-08-01T06:19:38;13.50;;;4.97;;
5722;SDS011;2886;49.722;8.612;2023-08-01T06:22:04;7.53;;;4.43;;
5722;SDS011;2886;49.722;8.612;2023-08-01T06:24:30;8.20;;;4.43;;
5722;SDS011;2886;49.722;8.612;2023-08-01T06:26:56;10.83;;;5.20;;
5722;SDS011;2886;49.722;8.612;2023-08-01T06:29:21;11.60;;;4.73;;
5722;SDS011;2886;49.722;8.612;2023-08-01T06:31:47;10.07;;;4.70;;
5722;SDS011;2886;49.722;8.612;2023-08-01T06:34:12;6.73;;;4.37;;
5722;SDS011;2886;49.722;8.612;2023-08-01T06:36:38;8.90;;;4.77;;
5722;SDS011;2886;49.722;8.612;2023-08-01T06:39:03;10.23;;;5.03;;
5722;SDS011;2886;49.722;8.612;2023-08-01T06:41:29;6.63;;;4.20;;
5722;SDS011;2886;49.722;8.612;2023-08-01T06:43:57;7.97;;;5.03;;
5722;SDS011;2886;49.722;8.612;2023-08-01T06:46:22;11.13;;;4.27;;
5722;SDS011;2886;49.722;8.612;2023-08-01T06:48:48;13.60;;;4.83;;
5722;SDS011;2886;49.722;8.612;2023-08-01T06:51:13;12.20;;;4.60;;
5722;SDS011;2886;49.722;8.612;2023-08-01T06:53:39;9.73;;;5.17;;
5722;SDS011;2886;49.722;8.612;2023-08-01T06:56:04;8.90;;;5.13;;
5722;SDS011;2886;49.722;8.612;2023-08-01T06:58:30;10.67;;;5.00;;
5722;SDS011;2886;49.722;8.612;2023-08-01T07:00:56;7.73;;;4.90;;
5722;SDS011;2886;49.722;8.612;2023-08-01T07:03:22;19.43;;;4.53;;
5722;SDS011;2886;49.722;8.612;2023-08-01T07:05:47;10.20;;;4.13;;
5722;SDS011;2886;49.722;8.612;2023-08-01T07:08:13;11.10;;;4.90;;
5722;SDS011;2886;49.722;8.612;2023-08-01T07:10:39;9.20;;;5.07;;
5722;SDS011;2886;49.722;8.612;2023-08-01T07:13:04;9.80;;;4.90;;
5722;SDS011;2886;49.722;8.612;2023-08-01T07:15:30;6.67;;;4.10;;
5722;SDS011;2886;49.722;8.612;2023-08-01T07:17:57;7.10;;;3.50;;
5722;SDS011;2886;49.722;8.612;2023-08-01T07:20:22;10.30;;;3.70;;
5722;SDS011;2886;49.722;8.612;2023-08-01T07:22:48;7.00;;;4.27;;
5722;SDS011;2886;49.722;8.612;2023-08-01T07:25:14;12.27;;;4.27;;
5722;SDS011;2886;49.722;8.612;2023-08-01T07:27:41;5.20;;;3.60;;
5722;SDS011;2886;49.722;8.612;2023-08-01T07:30:06;9.07;;;3.60;;
5722;SDS011;2886;49.722;8.612;2023-08-01T07:32:32;7.27;;;3.37;;
5722;SDS011;2886;49.722;8.612;2023-08-01T07:34:58;5.20;;;3.00;;
5722;SDS011;2886;49.722;8.612;2023-08-01T07:37:24;4.90;;;3.13;;
5722;SDS011;2886;49.722;8.612;2023-08-01T07:39:49;6.90;;;3.90;;
5722;SDS011;2886;49.722;8.612;2023-08-01T07:42:15;5.47;;;3.13;;
5722;SDS011;2886;49.722;8.612;2023-08-01T07:44:41;12.43;;;3.63;;
5722;SDS011;2886;49.722;8.612;2023-08-01T07:47:06;6.40;;;3.17;;
5722;SDS011;2886;49.722;8.612;2023-08-01T07:49:32;4.87;;;3.13;;
5722;SDS011;2886;49.722;8.612;2023-08-01T07:51:58;6.97;;;3.60;;
5722;SDS011;2886;49.722;8.612;2023-08-01T07:54:24;6.70;;;3.27;;
5722;SDS011;2886;49.722;8.612;2023-08-01T07:56:50;5.67;;;3.13;;
5722;SDS011;2886;49.722;8.612;2023-08-01T07:59:15;10.67;;;3.80;;
5722;SDS011;2886;49.722;8.612;2023-08-01T08:01:41;10.40;;;3.80;;
5722;SDS011;2886;49.722;8.612;2023-08-01T08:04:07;5.50;;;2.90;;
5722;SDS011;2886;49.722;8.612;2023-08-01T08:06:32;4.23;;;3.47;;
5722;SDS011;2886;49.722;8.612;2023-08-01T08:08:58;4.50;;;2.50;;
5722;SDS011;2886;49.722;8.612;2023-08-01T08:11:23;8.60;;;2.83;;
5722;SDS011;2886;49.722;8.612;2023-08-01T08:13:49;4.70;;;3.07;;
5722;SDS011;2886;49.722;8.612;2023-08-01T08:16:15;5.83;;;2.40;;
5722;SDS011;2886;49.722;8.612;2023-08-01T08:18:41;4.17;;;2.77;;
5722;SDS011;2886;49.722;8.612;2023-08-01T08:21:06;12.10;;;2.73;;
5722;SDS011;2886;49.722;8.612;2023-08-01T08:23:32;6.00;;;2.87;;
5722;SDS011;2886;49.722;8.612;2023-08-01T08:25:58;2.37;;;1.70;;
5722;SDS011;2886;49.722;8.612;2023-08-01T08:28:31;3.37;;;2.10;;
5722;SDS011;2886;49.722;8.612;2023-08-01T08:30:58;2.80;;;2.13;;
5722;SDS011;2886;49.722;8.612;2023-08-01T08:33:24;6.90;;;1.87;;
5722;SDS011;2886;49.722;8.612;2023-08-01T08:35:50;8.47;;;4.13;;
5722;SDS011;2886;49.722;8.612;2023-08-01T08:38:16;3.27;;;2.63;;
5722;SDS011;2886;49.722;8.612;2023-08-01T08:40:46;2.50;;;1.80;;
5722;SDS011;2886;49.722;8.612;2023-08-01T08:43:16;1.80;;;1.50;;
5722;SDS011;2886;49.722;8.612;2023-08-01T08:45:42;1.60;;;1.43;;
5722;SDS011;2886;49.722;8.612;2023-08-01T08:48:13;3.80;;;1.57;;
5722;SDS011;2886;49.722;8.612;2023-08-01T08:50:43;2.77;;;1.50;;
5722;SDS011;2886;49.722;8.612;2023-08-01T08:53:10;2.03;;;1.47;;
5722;SDS011;2886;49.722;8.612;2023-08-01T08:55:40;2.87;;;1.73;;
5722;SDS011;2886;49.722;8.612;2023-08-01T08:58:06;1.63;;;1.23;;
5722;SDS011;2886;49.722;8.612;2023-08-01T09:00:34;1.47;;;1.33;;
5722;SDS011;2886;49.722;8.612;2023-08-01T09:03:01;2.07;;;1.33;;
5722;SDS011;2886;49.722;8.612;2023-08-01T09:05:27;1.80;;;1.27;;
5722;SDS011;2886;49.722;8.612;2023-08-01T09:07:56;1.93;;;1.20;;
5722;SDS011;2886;49.722;8.612;2023-08-01T09:10:23;4.00;;;1.60;;
5722;SDS011;2886;49.722;8.612;2023-08-01T09:12:49;2.30;;;1.30;;
5722;SDS011;2886;49.722;8.612;2023-08-01T09:15:15;2.20;;;1.33;;
5722;SDS011;2886;49.722;8.612;2023-08-01T09:17:50;5.60;;;1.23;;
5722;SDS011;2886;49.722;8.612;2023-08-01T09:20:17;1.50;;;1.17;;
5722;SDS011;2886;49.722;8.612;2023-08-01T09:22:46;1.97;;;1.30;;
5722;SDS011;2886;49.722;8.612;2023-08-01T09:25:12;1.80;;;1.70;;
5722;SDS011;2886;49.722;8.612;2023-08-01T09:27:38;1.77;;;1.20;;
5722;SDS011;2886;49.722;8.612;2023-08-01T09:30:09;1.60;;;1.00;;
5722;SDS011;2886;49.722;8.612;2023-08-01T09:32:36;3.00;;;1.20;;
5722;SDS011;2886;49.722;8.612;2023-08-01T09:35:04;5.03;;;1.40;;
5722;SDS011;2886;49.722;8.612;2023-08-01T09:37:42;1.43;;;1.10;;
5722;SDS011;2886;49.722;8.612;2023-08-01T09:40:08;5.90;;;1.37;;
5722;SDS011;2886;49.722;8.612;2023-08-01T09:42:41;1.83;;;0.90;;
5722;SDS011;2886;49.722;8.612;2023-08-01T09:45:17;1.40;;;0.90;;
5722;SDS011;2886;49.722;8.612;2023-08-01T09:47:45;2.40;;;1.47;;
5722;SDS011;2886;49.722;8.612;2023-08-01T09:50:11;1.60;;;1.20;;
5722;SDS011;2886;49.722;8.612;2023-08-01T09:52:44;0.90;;;0.80;;
5722;SDS011;2886;49.722;8.612;2023-08-01T09:55:17;1.20;;;1.10;;
5722;SDS011;2886;49.722;8.612;2023-08-01T09:57:44;2.53;;;1.33;;
5722;SDS011;2886;49.722;8.612;2023-08-01T10:00:13;2.23;;;1.30;;
5722;SDS011;2886;49.722;8.612;2023-08-01T10:02:39;1.50;;;1.33;;
5722;SDS011;2886;49.722;8.612;2023-08-01T10:05:08;1.87;;;1.53;;
5722;SDS011;2886;49.722;8.612;2023-08-01T10:07:34;1.33;;;1.23;;
5722;SDS011;2886;49.722;8.612;2023-08-01T10:10:02;3.00;;;1.40;;
5722;SDS011;2886;49.722;8.612;2023-08-01T10:12:29;2.40;;;1.30;;
5722;SDS011;2886;49.722;8.612;2023-08-01T10:14:55;1.80;;;1.30;;
5722;SDS011;2886;49.722;8.612;2023-08-01T10:17:22;1.53;;;1.27;;
5722;SDS011;2886;49.722;8.612;2023-08-01T10:19:50;3.00;;;1.40;;
5722;SDS011;2886;49.722;8.612;2023-08-01T10:22:16;1.60;;;1.30;;
5722;SDS011;2886;49.722;8.612;2023-08-01T10:24:43;3.03;;;1.40;;
5722;SDS011;2886;49.722;8.612;2023-08-01T10:27:14;1.30;;;1.20;;
5722;SDS011;2886;49.722;8.612;2023-08-01T10:29:44;1.47;;;1.37;;
5722;SDS011;2886;49.722;8.612;2023-08-01T10:32:11;1.70;;;1.60;;
5722;SDS011;2886;49.722;8.612;2023-08-01T10:34:37;1.60;;;1.20;;
5722;SDS011;2886;49.722;8.612;2023-08-01T10:37:03;2.50;;;1.23;;
5722;SDS011;2886;49.722;8.612;2023-08-01T10:39:29;1.30;;;1.20;;
5722;SDS011;2886;49.722;8.612;2023-08-01T10:41:59;1.33;;;1.23;;
5722;SDS011;2886;49.722;8.612;2023-08-01T10:44:25;1.97;;;1.20;;
5722;SDS011;2886;49.722;8.612;2023-08-01T10:46:53;1.87;;;1.53;;
5722;SDS011;2886;49.722;8.612;2023-08-01T10:49:35;2.03;;;1.17;;
5722;SDS011;2886;49.722;8.612;2023-08-01T10:52:03;5.80;;;1.43;;
5722;SDS011;2886;49.722;8.612;2023-08-01T10:54:40;1.40;;;1.10;;
5722;SDS011;2886;49.722;8.612;2023-08-01T10:57:06;2.27;;;1.37;;
5722;SDS011;2886;49.722;8.612;2023-08-01T10:59:31;2.40;;;1.43;;
5722;SDS011;2886;49.722;8.612;2023-08-01T11:01:58;3.90;;;1.70;;
5722;SDS011;2886;49.722;8.612;2023-08-01T11:04:25;3.00;;;1.47;;
5722;SDS011;2886;49.722;8.612;2023-08-01T11:06:51;1.93;;;1.43;;
5722;SDS011;2886;49.722;8.612;2023-08-01T11:09:26;1.40;;;1.30;;
5722;SDS011;2886;49.722;8.612;2023-08-01T11:11:53;1.57;;;1.27;;
5722;SDS011;2886;49.722;8.612;2023-08-01T11:14:21;1.90;;;1.40;;
5722;SDS011;2886;49.722;8.612;2023-08-01T11:16:48;2.73;;;1.20;;
5722;SDS011;2886;49.722;8.612;2023-08-01T11:19:18;1.93;;;1.37;;
5722;SDS011;2886;49.722;8.612;2023-08-01T11:21:48;1.87;;;1.20;;
5722;SDS011;2886;49.722;8.612;2023-08-01T11:24:14;2.23;;;1.10;;
5722;SDS011;2886;49.722;8.612;2023-08-01T11:26:42;2.17;;;1.43;;
5722;SDS011;2886;49.722;8.612;2023-08-01T11:29:09;3.23;;;1.30;;
5722;SDS011;2886;49.722;8.612;2023-08-01T11:31:36;4.93;;;1.30;;
5722;SDS011;2886;49.722;8.612;2023-08-01T11:34:01;1.90;;;1.37;;
5722;SDS011;2886;49.722;8.612;2023-08-01T11:36:28;3.07;;;1.13;;
5722;SDS011;2886;49.722;8.612;2023-08-01T11:38:57;2.53;;;1.50;;
5722;SDS011;2886;49.722;8.612;2023-08-01T11:41:25;2.67;;;1.50;;
5722;SDS011;2886;49.722;8.612;2023-08-01T11:43:52;1.67;;;1.40;;
5722;SDS011;2886;49.722;8.612;2023-08-01T11:46:19;3.03;;;1.70;;
5722;SDS011;2886;49.722;8.612;2023-08-01T11:48:47;2.70;;;1.83;;
5722;SDS011;2886;49.722;8.612;2023-08-01T11:51:13;1.97;;;1.40;;
5722;SDS011;2886;49.722;8.612;2023-08-01T11:53:38;1.90;;;1.70;;
5722;SDS011;2886;49.722;8.612;2023-08-01T11:56:04;10.30;;;1.63;;
5722;SDS011;2886;49.722;8.612;2023-08-01T11:58:31;1.77;;;1.60;;
5722;SDS011;2886;49.722;8.612;2023-08-01T12:01:10;3.40;;;1.53;;
5722;SDS011;2886;49.722;8.612;2023-08-01T12:06:09;1.40;;;1.30;;
5722;SDS011;2886;49.722;8.612;2023-08-01T12:08:36;2.07;;;1.10;;
5722;SDS011;2886;49.722;8.612;2023-08-01T12:11:03;1.77;;;1.20;;
5722;SDS011;2886;49.722;8.612;2023-08-01T12:13:28;3.47;;;1.90;;
5722;SDS011;2886;49.722;8.612;2023-08-01T12:15:56;1.97;;;1.60;;
5722;SDS011;2886;49.722;8.612;2023-08-01T12:18:23;2.67;;;1.70;;
5722;SDS011;2886;49.722;8.612;2023-08-01T12:20:49;5.00;;;1.50;;
5722;SDS011;2886;49.722;8.612;2023-08-01T12:23:15;3.57;;;1.50;;
5722;SDS011;2886;49.722;8.612;2023-08-01T12:25:42;2.10;;;1.30;;
5722;SDS011;2886;49.722;8.612;2023-08-01T12:28:07;1.50;;;1.30;;
5722;SDS011;2886;49.722;8.612;2023-08-01T12:30:33;2.10;;;1.33;;
5722;SDS011;2886;49.722;8.612;2023-08-01T12:32:58;1.73;;;1.00;;
5722;SDS011;2886;49.722;8.612;2023-08-01T12:35:25;1.30;;;1.10;;
5722;SDS011;2886;49.722;8.612;2023-08-01T12:37:52;2.53;;;1.50;;
5722;SDS011;2886;49.722;8.612;2023-08-01T12:40:18;4.20;;;1.40;;
5722;SDS011;2886;49.722;8.612;2023-08-01T12:42:44;3.10;;;1.40;;
5722;SDS011;2886;49.722;8.612;2023-08-01T12:45:10;2.60;;;1.10;;
5722;SDS011;2886;49.722;8.612;2023-08-01T12:47:35;3.90;;;1.40;;
5722;SDS011;2886;49.722;8.612;2023-08-01T12:50:01;1.60;;;1.50;;
5722;SDS011;2886;49.722;8.612;2023-08-01T12:52:26;3.20;;;1.73;;
5722;SDS011;2886;49.722;8.612;2023-08-01T12:54:52;3.30;;;1.40;;
5722;SDS011;2886;49.722;8.612;2023-08-01T12:57:18;2.17;;;1.40;;
5722;SDS011;2886;49.722;8.612;2023-08-01T12:59:43;1.90;;;1.47;;
5722;SDS011;2886;49.722;8.612;2023-08-01T13:02:09;2.47;;;1.50;;
5722;SDS011;2886;49.722;8.612;2023-08-01T13:04:35;2.40;;;1.40;;
5722;SDS011;2886;49.722;8.612;2023-08-01T13:07:01;4.07;;;1.53;;
5722;SDS011;2886;49.722;8.612;2023-08-01T13:09:26;1.70;;;1.30;;
5722;SDS011;2886;49.722;8.612;2023-08-01T13:11:52;2.90;;;1.53;;
5722;SDS011;2886;49.722;8.612;2023-08-01T13:14:18;1.77;;;1.40;;
5722;SDS011;2886;49.722;8.612;2023-08-01T13:16:43;3.93;;;1.90;;
5722;SDS011;2886;49.722;8.612;2023-08-01T13:19:09;2.07;;;1.63;;
5722;SDS011;2886;49.722;8.612;2023-08-01T13:21:34;2.83;;;1.10;;
5722;SDS011;2886;49.722;8.612;2023-08-01T13:24:00;2.30;;;1.30;;
5722;SDS011;2886;49.722;8.612;2023-08-01T13:26:32;2.80;;;1.57;;
5722;SDS011;2886;49.722;8.612;2023-08-01T13:28:58;4.83;;;1.70;;
5722;SDS011;2886;49.722;8.612;2023-08-01T13:31:24;7.27;;;1.77;;
5722;SDS011;2886;49.722;8.612;2023-08-01T13:33:50;3.83;;;1.87;;
5722;SDS011;2886;49.722;8.612;2023-08-01T13:36:19;2.70;;;1.50;;
5722;SDS011;2886;49.722;8.612;2023-08-01T13:38:45;2.37;;;1.80;;
5722;SDS011;2886;49.722;8.612;2023-08-01T13:41:10;3.77;;;2.10;;
5722;SDS011;2886;49.722;8.612;2023-08-01T13:43:36;2.70;;;1.57;;
5722;SDS011;2886;49.722;8.612;2023-08-01T13:46:15;5.47;;;2.50;;
5722;SDS011;2886;49.722;8.612;2023-08-01T13:48:42;9.60;;;2.13;;
5722;SDS011;2886;49.722;8.612;2023-08-01T13:51:11;4.13;;;1.93;;
5722;SDS011;2886;49.722;8.612;2023-08-01T13:53:38;2.67;;;1.83;;
5722;SDS011;2886;49.722;8.612;2023-08-01T13:56:07;5.07;;;2.13;;
5722;SDS011;2886;49.722;8.612;2023-08-01T13:58:33;3.17;;;2.10;;
5722;SDS011;2886;49.722;8.612;2023-08-01T14:01:03;2.83;;;1.93;;
5722;SDS011;2886;49.722;8.612;2023-08-01T14:03:29;1.93;;;1.53;;
5722;SDS011;2886;49.722;8.612;2023-08-01T14:05:56;1.50;;;1.40;;
5722;SDS011;2886;49.722;8.612;2023-08-01T14:08:28;4.13;;;1.83;;
5722;SDS011;2886;49.722;8.612;2023-08-01T14:10:54;2.97;;;1.80;;
5722;SDS011;2886;49.722;8.612;2023-08-01T14:13:20;3.50;;;1.53;;
5722;SDS011;2886;49.722;8.612;2023-08-01T14:15:45;4.50;;;1.77;;
5722;SDS011;2886;49.722;8.612;2023-08-01T14:18:11;6.63;;;1.90;;
5722;SDS011;2886;49.722;8.612;2023-08-01T14:20:38;2.90;;;1.60;;
5722;SDS011;2886;49.722;8.612;2023-08-01T14:23:03;5.33;;;1.93;;
5722;SDS011;2886;49.722;8.612;2023-08-01T14:25:29;1.97;;;1.77;;
5722;SDS011;2886;49.722;8.612;2023-08-01T14:27:54;2.43;;;1.60;;
5722;SDS011;2886;49.722;8.612;2023-08-01T14:30:20;1.50;;;1.30;;
5722;SDS011;2886;49.722;8.612;2023-08-01T14:32:45;1.77;;;1.50;;
5722;SDS011;2886;49.722;8.612;2023-08-01T14:35:11;2.17;;;1.50;;
5722;SDS011;2886;49.722;8.612;2023-08-01T14:37:37;5.20;;;1.47;;
5722;SDS011;2886;49.722;8.612;2023-08-01T14:40:02;1.90;;;1.40;;
5722;SDS011;2886;49.722;8.612;2023-08-01T14:42:29;8.63;;;2.30;;
5722;SDS011;2886;49.722;8.612;2023-08-01T14:44:54;6.20;;;1.47;;
5722;SDS011;2886;49.722;8.612;2023-08-01T14:47:22;2.30;;;1.40;;
5722;SDS011;2886;49.722;8.612;2023-08-01T14:49:48;1.47;;;1.37;;
5722;SDS011;2886;49.722;8.612;2023-08-01T14:52:14;1.67;;;1.37;;
5722;SDS011;2886;49.722;8.612;2023-08-01T14:54:39;2.60;;;1.47;;
5722;SDS011;2886;49.722;8.612;2023-08-01T14:57:05;1.73;;;1.40;;
5722;SDS011;2886;49.722;8.612;2023-08-01T14:59:30;5.70;;;2.07;;
5722;SDS011;2886;49.722;8.612;2023-08-01T15:01:56;2.60;;;1.70;;
5722;SDS011;2886;49.722;8.612;2023-08-01T15:04:21;4.07;;;1.87;;
5722;SDS011;2886;49.722;8.612;2023-08-01T15:06:47;4.90;;;1.80;;
5722;SDS011;2886;49.722;8.612;2023-08-01T15:09:13;2.97;;;1.70;;
5722;SDS011;2886;49.722;8.612;2023-08-01T15:11:38;4.70;;;1.77;;